Time,TemperatureF,DewpointF,PressureIn,WindDirection,WindDirectionDegrees,WindSpeedMPH,WindSpeedGustMPH,Humidity,HourlyPrecipIn,Conditions,Clouds,dailyrainin,SoftwareType,DateUTC
2013-05-28 00:01:00,55.1,48.3,29.75,WNW,293,0.0,0.0,78,0.00,,,0.00,WUHU216HW,2013-05-28 04:01:00,
2013-05-28 00:06:00,55.1,48.3,29.75,WNW,293,0.0,0.0,78,0.00,,,0.00,WUHU216HW,2013-05-28 04:06:00,
2013-05-28 00:29:00,54.4,48.3,29.75,West,270,0.0,0.0,80,0.00,,,0.00,WUHU216HW,2013-05-28 04:29:00,
2013-05-28 00:34:00,54.4,48.3,29.75,West,270,0.0,0.0,80,0.00,,,0.00,WUHU216HW,2013-05-28 04:34:00,
2013-05-28 00:59:00,54.0,48.3,29.74,SSE,158,0.2,0.2,81,0.00,,,0.00,WUHU216HW,2013-05-28 04:59:00,
2013-05-28 01:04:00,54.0,48.3,29.74,SSE,158,0.2,0.2,81,0.00,,,0.00,WUHU216HW,2013-05-28 05:04:00,
2013-05-28 01:29:00,53.8,48.5,29.74,SSE,158,0.0,0.0,82,0.00,,,0.00,WUHU216HW,2013-05-28 05:29:00,
2013-05-28 01:34:00,53.8,48.5,29.74,SSE,158,0.0,0.0,82,0.00,,,0.00,WUHU216HW,2013-05-28 05:34:00,
2013-05-28 01:59:00,53.6,48.3,29.73,SSE,158,0.0,0.0,82,0.00,,,0.00,WUHU216HW,2013-05-28 05:59:00,
2013-05-28 02:04:00,53.6,48.3,29.73,SSE,158,0.0,0.0,82,0.00,,,0.00,WUHU216HW,2013-05-28 06:04:00,
2013-05-28 18:59:00,78.8,68.2,29.61,SSE,158,2.0,2.0,70,0.00,,,0.00,WUHU216HW,2013-05-28 22:59:00,
2013-05-28 19:04:00,78.8,68.2,29.60,SSE,158,1.8,2.7,70,0.00,,,0.00,WUHU216HW,2013-05-28 23:04:00,
2013-05-28 19:09:00,78.8,68.2,29.60,SSE,158,1.8,2.7,70,0.00,,,0.00,WUHU216HW,2013-05-28 23:09:00,
2013-05-28 19:32:00,77.6,65.8,29.61,SSE,158,1.8,1.8,67,0.00,,,0.00,WUHU216HW,2013-05-28 23:32:00,
2013-05-28 19:37:00,77.6,65.8,29.61,SSE,158,1.8,1.8,67,0.00,,,0.00,WUHU216HW,2013-05-28 23:37:00,
2013-05-28 20:00:00,76.5,65.2,29.61,SSE,158,0.9,0.9,68,0.00,,,0.00,WUHU216HW,2013-05-29 00:00:00,
2013-05-28 20:05:00,76.5,65.2,29.61,SSE,158,0.9,0.9,68,0.00,,,0.00,WUHU216HW,2013-05-29 00:05:00,
2013-05-28 20:30:00,74.2,65.0,29.61,SE,135,1.8,1.8,73,0.00,,,0.00,WUHU216HW,2013-05-29 00:30:00,
2013-05-28 20:35:00,74.2,65.0,29.61,SE,135,1.8,1.8,73,0.00,,,0.00,WUHU216HW,2013-05-29 00:35:00,
2013-05-28 21:00:00,71.6,62.9,29.60,NNW,338,0.0,0.0,74,0.00,,,0.00,WUHU216HW,2013-05-29 01:00:00,
2013-05-28 21:05:00,71.6,62.9,29.60,NNW,338,0.0,0.0,74,0.00,,,0.00,WUHU216HW,2013-05-29 01:05:00,
2013-05-28 21:30:00,69.8,61.8,29.61,NNW,338,0.4,0.4,76,0.00,,,0.00,WUHU216HW,2013-05-29 01:30:00,
2013-05-28 21:35:00,69.8,61.8,29.61,NNW,338,0.4,0.4,76,0.00,,,0.00,WUHU216HW,2013-05-29 01:35:00,
2013-05-28 22:00:00,68.4,61.7,29.62,SW,225,0.4,0.4,79,0.00,,,0.00,WUHU216HW,2013-05-29 02:00:00,
2013-05-28 22:05:00,68.4,61.7,29.62,SW,225,0.4,0.4,79,0.00,,,0.00,WUHU216HW,2013-05-29 02:05:00,
2013-05-28 22:30:00,67.1,61.2,29.62,South,180,0.7,0.7,81,0.00,,,0.00,WUHU216HW,2013-05-29 02:30:00,
2013-05-28 22:35:00,67.1,61.2,29.62,South,180,0.7,0.7,81,0.00,,,0.00,WUHU216HW,2013-05-29 02:35:00,
2013-05-28 23:00:00,66.1,60.4,29.63,SW,225,0.7,0.7,82,0.00,,,0.00,WUHU216HW,2013-05-29 03:00:00,
2013-05-28 23:05:00,66.1,60.4,29.63,SW,225,0.7,0.7,82,0.00,,,0.00,WUHU216HW,2013-05-29 03:05:00,
2013-05-28 23:30:00,65.2,59.9,29.63,SW,225,0.0,0.0,83,0.00,,,0.00,WUHU216HW,2013-05-29 03:30:00,
2013-05-28 23:35:00,65.2,59.9,29.63,SW,225,0.0,0.0,83,0.00,,,0.00,WUHU216HW,2013-05-29 03:35:00,